createdAt,value
2023-05-17T00:00:01.708Z,8.30
2023-05-17T00:02:29.729Z,8.40
2023-05-17T00:04:57.787Z,7.23
2023-05-17T00:07:27.214Z,7.90
2023-05-17T00:09:55.187Z,7.87
2023-05-17T00:12:23.209Z,8.43
2023-05-17T00:14:51.243Z,8.20
2023-05-17T00:17:19.204Z,8.50
2023-05-17T00:19:47.241Z,8.50
2023-05-17T00:22:15.254Z,8.40
2023-05-17T00:24:44.628Z,7.93
2023-05-17T00:27:12.690Z,8.60
2023-05-17T00:29:40.691Z,8.17
2023-05-17T00:32:09.067Z,8.57
2023-05-17T00:34:37.133Z,8.30
2023-05-17T00:37:05.597Z,8.53
2023-05-17T00:39:33.585Z,9.70
2023-05-17T00:42:02.995Z,8.00
2023-05-17T00:44:31.208Z,8.80
2023-05-17T00:46:59.965Z,8.40
2023-05-17T00:49:28.348Z,8.33
2023-05-17T00:51:56.797Z,9.63
2023-05-17T00:54:25.092Z,8.27
2023-05-17T00:56:53.719Z,7.63
2023-05-17T00:59:24.401Z,8.60
2023-05-17T01:01:53.464Z,8.40
2023-05-17T01:04:21.863Z,8.43
2023-05-17T01:06:50.283Z,9.02
2023-05-17T01:09:18.889Z,9.00
2023-05-17T01:12:02.676Z,8.27
2023-05-17T01:14:42.658Z,7.80
2023-05-17T01:17:17.669Z,8.25
2023-05-17T01:19:58.786Z,9.27
2023-05-17T01:22:40.219Z,9.52
2023-05-17T01:25:29.852Z,11.52
2023-05-17T01:28:02.146Z,11.32
2023-05-17T01:30:33.245Z,10.48
2023-05-17T01:33:02.368Z,10.73
2023-05-17T01:35:30.827Z,10.75
2023-05-17T01:37:59.025Z,11.38
2023-05-17T01:40:27.514Z,11.13
2023-05-17T01:43:06.119Z,10.50
2023-05-17T01:45:42.170Z,12.63
2023-05-17T01:48:17.090Z,10.83
2023-05-17T01:50:51.046Z,12.20
2023-05-17T01:53:26.861Z,10.03
2023-05-17T01:55:58.600Z,9.87
2023-05-17T01:58:30.508Z,11.27
2023-05-17T02:01:01.699Z,12.57
2023-05-17T02:03:30.486Z,11.97
2023-05-17T02:05:58.476Z,13.17
2023-05-17T02:08:26.467Z,12.00
2023-05-17T02:10:54.598Z,12.33
2023-05-17T02:13:22.583Z,11.67
2023-05-17T02:15:51.963Z,11.63
2023-05-17T02:18:21.929Z,11.17
2023-05-17T02:20:50.105Z,12.03
2023-05-17T02:23:18.091Z,10.80
2023-05-17T02:25:46.096Z,9.97
2023-05-17T02:28:14.319Z,9.37
2023-05-17T02:30:42.322Z,11.37
2023-05-17T02:33:11.860Z,8.90
2023-05-17T02:35:39.985Z,9.23
2023-05-17T02:38:07.981Z,9.60
2023-05-17T02:40:36.198Z,10.20
2023-05-17T02:43:04.158Z,10.53
2023-05-17T02:45:32.376Z,10.47
2023-05-17T02:48:00.458Z,10.00
2023-05-17T02:50:29.844Z,9.67
2023-05-17T02:52:57.877Z,9.63
2023-05-17T02:55:26.067Z,9.77
2023-05-17T02:57:54.429Z,9.27
2023-05-17T03:00:22.415Z,10.10
2023-05-17T03:02:50.668Z,10.37
2023-05-17T03:05:19.016Z,9.73
2023-05-17T03:07:48.406Z,10.40
2023-05-17T03:10:16.959Z,11.83
2023-05-17T03:12:45.064Z,11.13
2023-05-17T03:15:13.738Z,11.47
2023-05-17T03:17:41.800Z,11.00
2023-05-17T03:20:10.556Z,10.40
2023-05-17T03:22:38.655Z,9.60
2023-05-17T03:25:08.685Z,9.73
2023-05-17T03:27:36.917Z,9.10
2023-05-17T03:30:05.570Z,9.27
2023-05-17T03:32:33.821Z,10.47
2023-05-17T03:35:01.879Z,9.07
2023-05-17T03:37:29.857Z,10.50
2023-05-17T03:39:57.855Z,9.67
2023-05-17T03:42:27.233Z,9.90
2023-05-17T03:44:55.456Z,9.90
2023-05-17T03:47:23.996Z,10.50
2023-05-17T03:49:52.332Z,9.30
2023-05-17T03:52:20.381Z,10.10
2023-05-17T03:54:48.496Z,9.80
2023-05-17T03:57:16.526Z,9.20
2023-05-17T03:59:45.957Z,9.37
2023-05-17T04:02:16.173Z,9.87
2023-05-17T04:04:50.347Z,9.33
2023-05-17T04:07:18.595Z,11.97
2023-05-17T04:09:46.602Z,10.23
2023-05-17T04:12:15.056Z,11.00
2023-05-17T04:14:43.048Z,11.10
2023-05-17T04:17:12.452Z,10.07
2023-05-17T04:19:40.561Z,10.17
2023-05-17T04:22:08.576Z,12.87
2023-05-17T04:24:36.629Z,11.83
2023-05-17T04:27:05.187Z,9.47
2023-05-17T04:29:33.359Z,8.97
2023-05-17T04:32:01.484Z,9.37
2023-05-17T04:34:32.052Z,10.23
2023-05-17T04:37:00.476Z,10.27
2023-05-17T04:39:30.778Z,9.97
2023-05-17T04:41:58.959Z,11.23
2023-05-17T04:44:27.759Z,10.20
2023-05-17T04:46:55.820Z,10.00
2023-05-17T04:49:25.166Z,10.80
2023-05-17T04:51:54.630Z,10.57
2023-05-17T04:54:22.630Z,11.30
2023-05-17T04:56:50.760Z,10.50
2023-05-17T04:59:18.770Z,10.10
2023-05-17T05:01:46.817Z,10.20
2023-05-17T05:04:14.862Z,10.20
2023-05-17T05:06:43.108Z,12.30
2023-05-17T05:09:12.519Z,9.50
2023-05-17T05:11:40.871Z,10.57
2023-05-17T05:14:08.858Z,10.13
2023-05-17T05:16:37.265Z,11.27
2023-05-17T05:19:05.783Z,9.93
2023-05-17T05:21:34.038Z,9.63
2023-05-17T05:24:02.053Z,9.17
2023-05-17T05:26:32.015Z,9.07
2023-05-17T05:29:02.849Z,9.60
2023-05-17T05:31:31.354Z,8.87
2023-05-17T05:33:59.544Z,9.53
2023-05-17T05:36:27.547Z,9.27
2023-05-17T05:38:55.533Z,10.43
2023-05-17T05:41:23.617Z,11.93
2023-05-17T05:43:53.030Z,11.13
2023-05-17T05:46:21.221Z,9.57
2023-05-17T05:48:49.477Z,11.60
2023-05-17T05:51:20.169Z,10.07
2023-05-17T05:53:49.814Z,9.93
2023-05-17T05:56:18.238Z,10.83
2023-05-17T05:58:46.320Z,10.27
2023-05-17T06:01:16.077Z,13.20
2023-05-17T06:03:44.763Z,9.67
2023-05-17T06:06:12.843Z,10.40
2023-05-17T06:08:40.987Z,11.63
2023-05-17T06:11:09.569Z,9.17
2023-05-17T06:13:37.941Z,10.17
2023-05-17T06:16:06.838Z,11.47
2023-05-17T06:18:36.358Z,9.93
2023-05-17T06:21:04.569Z,9.60
2023-05-17T06:23:32.632Z,11.37
2023-05-17T06:26:01.097Z,10.37
2023-05-17T06:28:29.647Z,13.57
2023-05-17T06:30:58.044Z,10.07
2023-05-17T06:33:33.066Z,10.63
2023-05-17T06:38:36.255Z,11.27
2023-05-17T06:41:04.286Z,11.03
2023-05-17T06:43:32.517Z,9.93
2023-05-17T06:46:17.034Z,9.70
2023-05-17T06:48:45.226Z,9.47
2023-05-17T06:51:15.095Z,11.40
2023-05-17T06:53:43.168Z,12.00
2023-05-17T06:56:11.270Z,13.80
2023-05-17T06:58:39.510Z,14.73
2023-05-17T07:01:08.134Z,15.80
2023-05-17T07:03:36.634Z,15.53
2023-05-17T07:06:05.048Z,15.37
2023-05-17T07:08:35.032Z,14.27
2023-05-17T07:11:03.669Z,16.00
2023-05-17T07:13:32.598Z,16.30
2023-05-17T07:16:00.752Z,16.53
2023-05-17T07:18:28.923Z,16.13
2023-05-17T07:20:57.474Z,18.13
2023-05-17T07:23:25.880Z,20.57
2023-05-17T07:25:55.300Z,18.67
2023-05-17T07:28:23.504Z,18.00
2023-05-17T07:30:52.320Z,21.50
2023-05-17T07:33:20.533Z,19.57
2023-05-17T07:35:49.262Z,17.03
2023-05-17T07:38:17.947Z,17.17
2023-05-17T07:40:46.610Z,17.73
2023-05-17T07:43:16.412Z,16.20
2023-05-17T07:45:45.137Z,19.07
2023-05-17T07:48:13.447Z,16.23
2023-05-17T07:50:42.543Z,20.47
2023-05-17T07:53:10.717Z,17.07
2023-05-17T07:55:38.997Z,20.20
2023-05-17T07:58:07.601Z,17.97
2023-05-17T08:00:37.018Z,16.43
2023-05-17T08:03:05.212Z,18.37
2023-05-17T08:05:33.453Z,16.47
2023-05-17T08:08:01.490Z,19.00
2023-05-17T08:10:29.581Z,15.77
2023-05-17T08:12:57.692Z,18.73
2023-05-17T08:15:26.359Z,14.30
2023-05-17T08:17:56.131Z,17.17
2023-05-17T08:20:24.309Z,14.67
2023-05-17T08:22:52.436Z,18.30
2023-05-17T08:25:21.273Z,17.27
2023-05-17T08:27:49.273Z,18.67
2023-05-17T08:30:28.236Z,17.00
2023-05-17T08:32:58.814Z,18.60
2023-05-17T08:35:28.904Z,15.07
2023-05-17T08:37:57.288Z,15.53
2023-05-17T08:40:25.541Z,16.57
2023-05-17T08:42:54.152Z,16.63
2023-05-17T08:45:23.192Z,18.43
2023-05-17T08:47:54.531Z,16.43
2023-05-17T08:50:25.243Z,18.03
2023-05-17T08:52:53.704Z,16.93
2023-05-17T08:55:21.783Z,14.13
2023-05-17T08:57:51.632Z,19.23
2023-05-17T09:00:23.032Z,14.93
2023-05-17T09:02:51.578Z,16.63
2023-05-17T09:05:20.483Z,11.30
2023-05-17T09:07:50.627Z,13.97
2023-05-17T09:10:18.943Z,15.13
2023-05-17T09:12:47.292Z,16.50
2023-05-17T09:15:16.736Z,13.40
2023-05-17T09:17:45.357Z,13.37
2023-05-17T09:20:13.556Z,14.73
2023-05-17T09:22:42.412Z,15.83
2023-05-17T09:25:12.403Z,16.27
2023-05-17T09:27:41.453Z,13.73
2023-05-17T09:30:12.850Z,13.73
2023-05-17T09:32:46.228Z,20.53
2023-05-17T09:35:15.112Z,15.30
2023-05-17T09:37:45.219Z,17.87
2023-05-17T09:40:24.408Z,17.27
2023-05-17T09:42:52.718Z,18.60
2023-05-17T09:45:24.857Z,14.40
2023-05-17T09:47:53.689Z,14.00
2023-05-17T09:50:26.030Z,15.93
2023-05-17T09:52:54.530Z,18.00
2023-05-17T09:55:27.917Z,17.13
2023-05-17T09:58:04.322Z,15.57
2023-05-17T10:00:32.788Z,18.30
2023-05-17T10:03:02.833Z,19.23
2023-05-17T10:05:31.489Z,20.50
2023-05-17T10:08:00.332Z,16.73
2023-05-17T10:10:31.121Z,17.20
2023-05-17T10:13:00.181Z,15.60
2023-05-17T10:15:29.465Z,17.13
2023-05-17T10:17:58.464Z,16.37
2023-05-17T10:20:27.613Z,16.50
2023-05-17T10:22:58.590Z,19.23
2023-05-17T10:25:28.154Z,17.90
2023-05-17T10:27:58.769Z,15.57
2023-05-17T10:30:29.200Z,18.90
2023-05-17T10:32:58.127Z,15.07
2023-05-17T10:35:28.914Z,18.43
2023-05-17T10:37:57.197Z,17.23
2023-05-17T10:40:25.601Z,21.40
2023-05-17T10:42:55.688Z,18.27
2023-05-17T10:45:27.223Z,20.83
2023-05-17T10:47:58.818Z,20.93
2023-05-17T10:50:28.672Z,18.03
2023-05-17T10:53:00.580Z,19.73
2023-05-17T10:55:39.580Z,20.97
2023-05-17T10:58:18.921Z,16.67
2023-05-17T11:00:51.723Z,17.67
2023-05-17T11:03:22.768Z,21.67
2023-05-17T11:06:22.590Z,23.00
2023-05-17T11:09:08.054Z,21.10
2023-05-17T11:11:36.373Z,20.73
2023-05-17T11:14:06.470Z,19.33
2023-05-17T11:16:38.826Z,16.87
2023-05-17T11:19:11.326Z,20.10
2023-05-17T11:21:47.582Z,17.10
2023-05-17T11:24:22.311Z,22.20
2023-05-17T11:26:51.801Z,17.00
2023-05-17T11:29:19.835Z,20.17
2023-05-17T11:31:53.074Z,21.50
2023-05-17T11:34:23.398Z,19.87
2023-05-17T11:36:53.197Z,18.53
2023-05-17T11:39:22.709Z,16.03
2023-05-17T11:41:52.527Z,17.50
2023-05-17T11:44:26.271Z,31.70
2023-05-17T11:47:02.808Z,32.80
2023-05-17T11:49:36.202Z,26.90
2023-05-17T11:52:05.657Z,19.83
2023-05-17T11:54:34.214Z,15.90
2023-05-17T11:57:03.911Z,18.13
2023-05-17T11:59:38.970Z,17.27
2023-05-17T12:02:08.605Z,14.43
2023-05-17T12:04:38.778Z,15.67
2023-05-17T12:07:10.520Z,13.77
2023-05-17T12:09:39.612Z,15.67
2023-05-17T12:12:08.678Z,12.27
2023-05-17T12:14:36.971Z,15.07
2023-05-17T12:17:09.691Z,21.23
2023-05-17T12:19:37.866Z,15.63
2023-05-17T12:22:12.919Z,26.83
2023-05-17T12:24:42.564Z,22.90
2023-05-17T12:27:11.179Z,26.73
2023-05-17T12:29:40.072Z,24.67
2023-05-17T12:32:10.876Z,22.97
2023-05-17T12:34:39.332Z,24.03
2023-05-17T12:37:10.606Z,23.00
2023-05-17T12:39:39.336Z,18.43
2023-05-17T12:42:08.461Z,21.87
2023-05-17T12:44:37.102Z,19.53
2023-05-17T12:47:05.374Z,17.77
2023-05-17T12:49:39.574Z,17.20
2023-05-17T12:52:08.154Z,17.20
2023-05-17T12:54:36.324Z,20.17
2023-05-17T12:57:13.976Z,13.23
2023-05-17T12:59:49.352Z,16.93
2023-05-17T13:02:18.347Z,13.43
2023-05-17T13:04:47.863Z,11.80
2023-05-17T13:07:23.755Z,15.17
2023-05-17T13:09:51.971Z,15.10
2023-05-17T13:12:22.175Z,15.83
2023-05-17T13:14:53.149Z,16.23
2023-05-17T13:17:26.672Z,18.30
2023-05-17T13:19:58.020Z,17.27
2023-05-17T13:22:26.445Z,15.23
2023-05-17T13:24:55.738Z,15.47
2023-05-17T13:27:23.872Z,19.60
2023-05-17T13:29:51.993Z,18.53
2023-05-17T13:32:20.146Z,24.30
2023-05-17T13:34:48.133Z,23.03
2023-05-17T13:37:17.504Z,20.27
2023-05-17T13:39:45.731Z,22.67
2023-05-17T13:42:14.433Z,24.43
2023-05-17T13:44:42.481Z,27.47
2023-05-17T13:47:10.701Z,28.47
2023-05-17T13:49:38.705Z,30.47
2023-05-17T13:52:08.964Z,24.33
2023-05-17T13:54:39.174Z,27.40
2023-05-17T13:57:07.816Z,25.57
2023-05-17T13:59:35.965Z,22.97
2023-05-17T14:02:04.645Z,27.97
2023-05-17T14:04:32.716Z,22.57
2023-05-17T14:07:00.698Z,24.90
2023-05-17T14:09:32.874Z,26.23
2023-05-17T14:12:02.603Z,25.93
2023-05-17T14:14:31.323Z,23.43
2023-05-17T14:16:59.433Z,26.27
2023-05-17T14:19:27.480Z,20.87
2023-05-17T14:21:55.609Z,23.20
2023-05-17T14:24:23.859Z,21.70
2023-05-17T14:26:51.859Z,21.83
2023-05-17T14:29:21.441Z,21.70
2023-05-17T14:31:49.445Z,25.93
2023-05-17T14:34:17.558Z,19.20
2023-05-17T14:36:45.790Z,17.87
2023-05-17T14:39:13.836Z,18.03
2023-05-17T14:41:44.126Z,19.90
2023-05-17T14:44:12.968Z,19.10
2023-05-17T14:46:42.434Z,23.03
2023-05-17T14:49:10.477Z,24.93
2023-05-17T14:51:38.490Z,31.07
2023-05-17T14:54:06.971Z,24.63
2023-05-17T14:56:35.206Z,28.90
2023-05-17T14:59:03.601Z,23.67
2023-05-17T15:01:31.758Z,26.27
2023-05-17T15:04:01.275Z,25.60
2023-05-17T15:06:30.253Z,19.13
2023-05-17T15:08:58.561Z,22.70
2023-05-17T15:11:26.717Z,21.43
2023-05-17T15:13:54.893Z,26.37
2023-05-17T15:16:22.973Z,25.90
2023-05-17T15:18:52.529Z,28.40
2023-05-17T15:21:22.742Z,31.87
2023-05-17T15:23:51.115Z,33.83
2023-05-17T15:26:19.195Z,29.87
2023-05-17T15:28:49.933Z,30.60
2023-05-17T15:31:18.218Z,28.90
2023-05-17T15:33:46.531Z,28.90
2023-05-17T15:36:16.303Z,31.80
2023-05-17T15:38:46.131Z,46.03
2023-05-17T15:41:16.827Z,33.13
2023-05-17T15:43:45.159Z,40.40
2023-05-17T15:46:13.179Z,35.20
2023-05-17T15:48:41.512Z,34.47
2023-05-17T15:51:10.116Z,37.23
2023-05-17T15:53:38.274Z,29.53
2023-05-17T15:56:10.164Z,29.43
2023-05-17T15:58:38.296Z,32.33
2023-05-17T16:01:06.729Z,25.17
2023-05-17T16:03:34.837Z,21.90
2023-05-17T16:06:04.436Z,23.97
2023-05-17T16:08:32.878Z,24.73
2023-05-17T16:11:02.526Z,26.83
2023-05-17T16:13:32.235Z,21.13
2023-05-17T16:16:00.682Z,21.70
2023-05-17T16:18:30.130Z,22.27
2023-05-17T16:20:59.194Z,22.90
2023-05-17T16:23:27.796Z,22.47
2023-05-17T16:25:56.519Z,23.97
2023-05-17T16:28:24.733Z,23.60
2023-05-17T16:30:54.425Z,22.00
2023-05-17T16:33:22.702Z,22.20
2023-05-17T16:35:51.471Z,28.10
2023-05-17T16:38:19.508Z,24.87
2023-05-17T16:40:47.556Z,20.00
2023-05-17T16:43:16.200Z,20.53
2023-05-17T16:45:45.339Z,22.37
2023-05-17T16:48:15.645Z,21.70
2023-05-17T16:50:44.026Z,23.57
2023-05-17T16:53:12.436Z,21.63
2023-05-17T16:55:40.454Z,22.43
2023-05-17T16:58:08.719Z,26.03
2023-05-17T17:00:37.277Z,21.77
2023-05-17T17:03:08.474Z,24.77
2023-05-17T17:05:39.144Z,27.20
2023-05-17T17:08:07.154Z,23.23
2023-05-17T17:10:35.961Z,22.73
2023-05-17T17:13:04.909Z,24.77
2023-05-17T17:15:33.019Z,22.03
2023-05-17T17:18:01.069Z,24.60
2023-05-17T17:20:29.342Z,24.73
2023-05-17T17:22:58.850Z,23.83
2023-05-17T17:25:26.854Z,22.70
2023-05-17T17:27:54.876Z,24.67
2023-05-17T17:30:22.859Z,23.23
2023-05-17T17:32:50.929Z,25.97
2023-05-17T17:35:19.045Z,27.53
2023-05-17T17:37:47.020Z,23.20
2023-05-17T17:40:16.441Z,23.20
2023-05-17T17:42:44.427Z,22.67
2023-05-17T17:45:12.704Z,22.70
2023-05-17T17:47:42.342Z,23.33
2023-05-17T17:50:10.999Z,23.17
2023-05-17T17:52:39.133Z,21.90
2023-05-17T17:55:10.150Z,20.37
2023-05-17T17:57:39.529Z,24.33
2023-05-17T18:00:11.814Z,27.40
2023-05-17T18:02:40.267Z,28.23
2023-05-17T18:05:08.970Z,27.73
2023-05-17T18:07:37.147Z,30.30
2023-05-17T18:10:05.629Z,23.33
2023-05-17T18:12:33.617Z,26.27
2023-05-17T18:15:02.989Z,25.17
2023-05-17T18:17:30.996Z,24.60
2023-05-17T18:19:59.016Z,22.73
2023-05-17T18:22:27.068Z,24.33
2023-05-17T18:24:55.014Z,24.93
2023-05-17T18:27:23.056Z,27.23
2023-05-17T18:29:51.042Z,28.27
2023-05-17T18:32:20.538Z,27.20
2023-05-17T18:34:48.935Z,23.47
2023-05-17T18:37:16.945Z,30.33
2023-05-17T18:39:44.955Z,26.63
2023-05-17T18:42:13.184Z,27.80
2023-05-17T18:44:41.194Z,22.20
2023-05-17T18:47:09.232Z,23.37
2023-05-17T18:49:41.968Z,27.10
2023-05-17T18:52:09.949Z,31.30
2023-05-17T18:54:38.643Z,25.87
2023-05-17T18:57:09.610Z,27.33
2023-05-17T18:59:37.702Z,30.13
2023-05-17T19:02:06.506Z,27.57
2023-05-17T19:04:34.693Z,26.97
2023-05-17T19:07:04.368Z,25.60
2023-05-17T19:09:34.397Z,26.93
2023-05-17T19:12:02.540Z,28.53
2023-05-17T19:14:32.060Z,23.27
2023-05-17T19:17:00.249Z,31.13
2023-05-17T19:19:28.393Z,25.80
2023-05-17T19:21:56.438Z,28.63
2023-05-17T19:24:25.830Z,23.70
2023-05-17T19:26:53.823Z,26.10
2023-05-17T19:29:22.297Z,26.57
2023-05-17T19:31:50.739Z,25.80
2023-05-17T19:34:18.781Z,22.27
2023-05-17T19:36:46.774Z,27.30
2023-05-17T19:39:15.070Z,23.57
2023-05-17T19:41:44.426Z,24.27
2023-05-17T19:44:12.645Z,26.33
2023-05-17T19:46:40.682Z,32.13
2023-05-17T19:49:08.753Z,21.80
2023-05-17T19:51:36.884Z,34.07
2023-05-17T19:54:05.251Z,25.07
2023-05-17T19:56:33.228Z,29.50
2023-05-17T19:59:03.801Z,26.90
2023-05-17T20:01:31.933Z,25.83
2023-05-17T20:04:00.015Z,27.50
2023-05-17T20:06:28.155Z,23.50
2023-05-17T20:08:56.185Z,29.60
2023-05-17T20:11:24.183Z,26.73
2023-05-17T20:13:52.175Z,30.70
2023-05-17T20:16:21.658Z,39.27
2023-05-17T20:18:49.887Z,32.50
2023-05-17T20:21:19.756Z,29.73
2023-05-17T20:23:47.944Z,29.50
2023-05-17T20:26:18.768Z,28.13
2023-05-17T20:28:47.164Z,30.07
2023-05-17T20:31:16.071Z,22.83
2023-05-17T20:33:45.573Z,25.63
2023-05-17T20:36:14.621Z,23.60
2023-05-17T20:38:44.024Z,25.50
2023-05-17T20:41:14.809Z,23.33
2023-05-17T20:43:45.467Z,23.70
2023-05-17T20:46:13.954Z,23.17
2023-05-17T20:48:43.135Z,24.17
2023-05-17T20:51:13.077Z,23.50
2023-05-17T20:53:41.574Z,27.53
2023-05-17T20:56:09.579Z,23.33
2023-05-17T20:58:37.631Z,26.80
2023-05-17T21:01:05.801Z,26.63
2023-05-17T21:03:35.113Z,29.70
2023-05-17T21:06:05.188Z,26.27
2023-05-17T21:08:35.211Z,25.20
2023-05-17T21:11:03.242Z,25.00
2023-05-17T21:13:31.449Z,24.77
2023-05-17T21:15:59.644Z,26.63
2023-05-17T21:18:27.785Z,25.27
2023-05-17T21:20:56.159Z,27.90
2023-05-17T21:23:24.161Z,24.97
2023-05-17T21:25:53.536Z,25.67
2023-05-17T21:28:21.524Z,23.63
2023-05-17T21:30:49.858Z,23.67
2023-05-17T21:33:17.827Z,27.57
2023-05-17T21:35:45.892Z,27.33
2023-05-17T21:38:13.947Z,25.40
2023-05-17T21:40:42.236Z,22.93
2023-05-17T21:43:11.760Z,23.40
2023-05-17T21:45:41.236Z,25.67
2023-05-17T21:48:09.314Z,25.70
2023-05-17T21:50:37.356Z,24.73
2023-05-17T21:53:05.420Z,22.33
2023-05-17T21:55:45.803Z,23.37
2023-05-17T21:58:22.784Z,26.50
2023-05-17T22:00:50.812Z,30.27
2023-05-17T22:03:18.978Z,30.47
2023-05-17T22:05:48.353Z,21.97
2023-05-17T22:08:16.345Z,26.07
2023-05-17T22:10:44.516Z,21.83
2023-05-17T22:13:12.719Z,26.17
2023-05-17T22:15:42.871Z,22.97
2023-05-17T22:18:12.307Z,22.87
2023-05-17T22:20:40.599Z,24.87
2023-05-17T22:23:08.638Z,19.90
2023-05-17T22:25:36.982Z,24.33
2023-05-17T22:28:05.162Z,24.77
2023-05-17T22:30:33.624Z,23.57
2023-05-17T22:33:03.302Z,23.10
2023-05-17T22:35:31.447Z,25.10
2023-05-17T22:38:00.108Z,23.03
2023-05-17T22:40:28.329Z,23.10
2023-05-17T22:42:58.161Z,27.53
2023-05-17T22:45:32.827Z,29.00
2023-05-17T22:48:02.965Z,29.67
2023-05-17T22:50:32.580Z,20.77
2023-05-17T22:53:01.120Z,21.83
2023-05-17T22:55:29.518Z,20.10
2023-05-17T22:57:58.272Z,24.57
2023-05-17T23:00:26.453Z,23.90
2023-05-17T23:02:54.574Z,21.73
2023-05-17T23:05:22.836Z,21.27
2023-05-17T23:07:52.265Z,21.77
2023-05-17T23:10:21.765Z,21.03
2023-05-17T23:12:52.144Z,24.43
2023-05-17T23:15:20.707Z,22.03
2023-05-17T23:17:48.832Z,21.67
2023-05-17T23:20:16.966Z,23.60
2023-05-17T23:22:44.969Z,26.80
2023-05-17T23:25:15.754Z,26.40
2023-05-17T23:27:44.364Z,28.10
2023-05-17T23:30:13.014Z,19.83
2023-05-17T23:32:42.429Z,35.60
2023-05-17T23:35:10.726Z,21.13
2023-05-17T23:37:38.859Z,25.97
2023-05-17T23:40:09.750Z,20.37
2023-05-17T23:42:39.187Z,21.93
2023-05-17T23:45:09.277Z,22.33
2023-05-17T23:47:40.797Z,28.53
2023-05-17T23:50:10.233Z,23.10
2023-05-17T23:52:38.981Z,20.70
2023-05-17T23:55:07.956Z,20.07
2023-05-17T23:57:36.666Z,25.87
